Terminal Aerodrome Forecast
Issued by NWS

Home | Current Version | Previous Version | Text Only | Print | Product List | Glossary On
Versions: 1 2 3 4 5 6 7 8 9 10 11 12 13 14 15 16
000
FTAK31 PANC 232322
TAFAIL
TAF
PAIL 232322Z 2400/2424 12010KT P6SM SCT060 SCT160
     FM240800 05005KT P6SM SCT150
     FM242100 12012KT P6SM BKN080=

USA.gov is the U.S. government's official web portal to all federal, state and local government web resources and services.